Main page
Satellite images 10-day forecastsClimateMarine weather Cyclones Lightning AirportsFAQ Newsletter About
Weather : Europe Africa North America South America Asia Australia-Oceania Others
Languages Contact

Eleusina, Greece

latitude: 38-04N, longitude: 023-33E, elevation: 44 m


METAR: LGEL 302150Z 34014KT CAVOK 28/08 Q1017
TAF: LGEL 301700Z 3018/3118 35015G25KT CAVOK

Time: 01:29 (22:29 UTC)

Current weather observation

The report was made 39 minutes ago, at 21:50 UTC
Wind 14 kt from the North/Northwest
Temperature 28°C
Humidity 28%
Pressure 1017 hPa
Visibility 10 km or more
no clouds below 1500 m and no cumulonimbus

Change units

Forecast

The report was made 5 hours and 29 minutes ago, at 17:00 UTC
Forecast valid from 30 at 18 UTC to 31 at 18 UTC
Wind 15 kt from the North with gusts up to 25 kt
Visibility 10 km or more
no clouds below 1500 m and no cumulonimbus
The information on this site is subject to a disclaimer
Weather : Europe Africa North America South America Asia Australia-Oceania Others
Satellite images 10-day forecastsClimateMarine weather Cyclones Lightning AirportsFAQ Languages Contact Newsletter About